x

South Brooks (46132) Wave Buoy

9:00 - Tue 30th Aug 2016 All times are PDT. -7 hours from GMT.

  • Sig Wave height 5.2ft
  • Peak Period 6s
  • Wind
    7mph, 9mph gusts
  • Sea Temp 56°f
  • Luft Temp 57°f
  • Sea Pressure 1012.2mb
  • South Brooks
  • South Brooks

More Historic Weather Station data

Upgrade to MSW Pro to gain access to the past 30 days of data for over 8000 Wavebouys and Weather Stations around the globe.

Join Pro

Comparision Forecast

View Surf forecast
   
Di 08/30 9:00 5ft 6s 7 9 mph 1012.2mb 56f 57f
8:00 5ft 6s 7 9 mph 1012mb 56f 57f
7:00 4.5ft 5s 4 7 mph 1012mb 56f 56f
6:00 4.5ft 5s 2 4 mph 1011.8mb 56f 56f
5:00 4.5ft 6s 2 4 mph 1011.8mb 56f 56f
4:00 4.5ft 14s 4 7 mph 1012mb 54f 56f
3:00 4.5ft 6s 7 9 mph 1012.3mb 53f 56f
2:00 4.5ft 5s 11 13 mph 1012.4mb 53f 56f
1:00 4.5ft 5s 13 16 mph 1012mb 53f 56f
12:00 5ft 6s 9 11 mph 1012.3mb 53f 56f
Mo 08/29 11:00 5ft 6s 9 11 mph 1012mb 53f 56f
10:00 6ft 6s 9
mph
1012.2mb 53f 55f
9:00 6ft 6s 13 16 mph 1011.8mb 53f 56f
8:00 6ft 6s 18 22 mph 1011.2mb 53f 57f
7:00 6ft 6s 16 22 mph 1011.3mb 53f 57f
6:00 6ft 6s 13 18 mph 1011.9mb 53f 57f
5:00 6ft 6s 13 16 mph 1012.1mb 53f 56f
4:00 6ft 6s 11 13 mph 1012.3mb 53f 56f
3:00 6ft 7s 16 20 mph 1012.6mb 53f 57f
2:00 5.5ft 6s 13 18 mph 1012.7mb 53f 56f
1:00 6ft 6s 13 16 mph 1012.5mb 53f 56f
12:00 6ft 7s 16 18 mph 1012.6mb 53f 56f
11:00 6ft 9s 16 18 mph 1012.8mb 52f 56f
10:00 6ft 9s 16 20 mph 1012.5mb 52f 56f
9:00 6ft 8s 18 22 mph 1012.2mb 52f 56f
8:00 6ft 8s 11 13 mph 1012.7mb 52f 56f
7:00 6ft 8s 9 13 mph 1012.9mb 52f 55f
6:00 6ft 6s 7 9 mph 1013.3mb 53f 55f
5:00 6ft 6s 13 16 mph 1013.6mb 53f 55f
4:00 6ft 6s 16 20 mph 1013.9mb 53f 55f
3:00 6ft 6s 16 20 mph 1014mb 53f 55f
2:00 6ft 6s 16 18 mph 1014.1mb 52f 55f
1:00 6ft 6s 13 18 mph 1014.2mb 52f 55f
12:00 6ft 6s 18 20 mph 1014mb 53f 55f
So 08/28 11:00 6ft 6s 16 18 mph 1013.9mb 53f 55f
10:00 6ft 6s 16 18 mph 1013.8mb 53f 55f
9:00 6.5ft 7s 16 20 mph 1013.7mb 53f 56f
8:00 7ft 6s 16 18 mph 1013.7mb 53f 56f
7:00 7ft 6s 18 22 mph 1013.6mb 53f 56f
6:00 7.5ft 6s 20 25 mph 1013.5mb 53f 56f
5:00 7.5ft 6s 25 29 mph 1013.1mb 53f 56f
4:00 8ft 6s 25 31 mph 1013.3mb 53f 56f
3:00 7ft 6s 27 31 mph 1013.2mb 53f 56f
2:00 7ft 6s 27 36 mph 1013.1mb 53f 56f
1:00 6ft 5s 29 36 mph 1013.1mb 54f 56f
12:00 6ft 5s 29 36 mph 1013mb 54f 56f
11:00 5.5ft 5s 29 34 mph 1013.2mb 55f 56f
10:00 5ft 4s 27 34 mph 1013.3mb 55f 56f
9:00 4.5ft 14s 27 34 mph 1013.4mb 55f 57f
8:00 4.5ft 14s 25 29 mph 1013.6mb 55f 56f
7:00 4ft 9s 22 27 mph 1013.8mb 55f 56f
6:00 3.5ft 8s 16 18 mph 1014mb 55f 57f
5:00 3.5ft 15s 13 16 mph 1014mb 55f 57f
4:00 4.5ft 14s 13
mph
1014.2mb 55f 57f
3:00 4.5ft 8s 11 13 mph 1014.3mb 55f 56f
2:00 4.5ft 8s 9 11 mph 1014.5mb 55f 57f
1:00 4.5ft 8s 9
mph
1014.2mb 55f 56f
12:00 5ft 8s 2 4 mph 1013.9mb 55f 57f
Sa 08/27 11:00 4.5ft 8s 4 7 mph 1013.6mb 55f 58f
10:00 4.5ft 8s 9 11 mph 1013.4mb 55f 57f
9:00 4.5ft 8s 11 13 mph 1013.4mb 55f 58f
8:00 4.5ft 8s 11 13 mph 1013mb 55f 57f
7:00 5ft 8s 16 18 mph 1013mb 55f 57f
6:00 5ft 8s 13 16 mph 1013.2mb 55f 58f
5:00 5ft 8s 13 16 mph 1013.2mb 56f 58f
4:00 5ft 8s 16 18 mph 1013mb 55f 58f
3:00 5ft 8s 18 20 mph 1013.1mb 55f 58f
2:00 5ft 8s 18 20 mph 1012.9mb 55f 58f
1:00 5ft 8s 16 20 mph 1012.8mb 55f 57f
12:00 5.5ft 7s 16 18 mph 1012.5mb 55f 57f
11:00 5ft 7s 18 20 mph 1012.2mb 55f 57f
10:00 5ft 7s 18 22 mph 1012.3mb 55f 57f
9:00 5ft 7s 18 22 mph 1012.3mb 55f 57f
8:00 5ft 8s 18 22 mph 1012.1mb 55f 57f
7:00 5ft 8s 20 25 mph 1012.1mb 55f 56f
6:00 5.5ft 8s 20 25 mph 1012.2mb 55f 56f
5:00 5.5ft 8s 20 25 mph 1012.2mb 55f 56f
4:00 6ft 8s 20 22 mph 1012.1mb 55f 55f
3:00 6ft 8s 22 27 mph 1011.8mb 55f 56f
2:00 6ft 7s 25 29 mph 1011.7mb 55f 56f
1:00 6ft 7s 25 29 mph 1012mb 55f 57f
12:00 6.5ft 8s 20 25 mph 1012.8mb 55f 57f
Fr 08/26 11:00 6.5ft 8s 22 27 mph 1013.1mb 55f 56f
10:00 6.5ft 8s 22 29 mph 1013.4mb 55f 56f
9:00 7ft 8s 25 31 mph 1013.4mb 55f 57f
8:00 7ft 8s 29 36 mph 1012.8mb 55f 56f
7:00 6.5ft 5s 25 29 mph 1013mb 55f 56f
6:00 7ft 6s 27 31 mph 1013.3mb 55f 58f